sim
Sign-in with your pilot id or email,
or register
Callsign
Passwort

Schedule Details

Flight Number: UAE9889 (B)
Departure: Mumbai Chhatrapati Shivaji International Airport (VABB) at 07:25
Arrival: Dubai World Central International Airport (OMDW) at 10:20
Route: Emirates Cargo Schedule. Enter filed route here before submitting Pirep.

Weather Information
Getting current METAR information for VABB 191900Z 27007KT 3500 HZ FEW020 SCT025 28/25 Q1010 BECMG 3000 HZ
Getting current METAR information for OMDW 191900Z 03007KT 9000 NSC 34/23 Q1004 NOSIG

Schedule Frequency

Route Map